Orchid Ace — 7JDE — position and weather

sailwx.info

Track history (hours):
 
Tides and Currents Weather Stations Pressure Air Temp Water Temp Dewpoint Dewpoint Depression Visibility Wind Speed Wind Dir Waves Ship Positions

Orchid Ace

Last reported at 2017-May-26 10:34 UTC. Time now 2017-May-27 15:49 UTC.
Position N 39°41' W 010°40'.

Length 200 m; draft 8.3 m.

Type: Cargo ship. MMSI: 432651000.

Date/timePositionNaut miles runAvg speedWind from/ knotsBaromVisibWave heightAir tempDewpointWater temp
2017-May-26 10:34N 39°41' W 010°40'213.9
2017-May-26 10:26N 39°39' W 010°41'2213.9
2017-May-26 08:50N 39°18' W 010°51'514.0
2017-May-26 08:30N 39°14' W 010°53'714.0
2017-May-26 08:00N 39°07' W 010°57'814.0
2017-May-26 07:27N 39°00' W 011°00'613.9
2017-May-26 07:01N 38°54' W 011°03'714.0
2017-May-26 06:31N 38°48' W 011°06'714.3
2017-May-26 06:00N 38°41' W 011°10'814.2
2017-May-26 05:25N 38°33' W 011°14'1214.0
2017-May-26 04:35N 38°23' W 011°19'214.1
2017-May-26 04:27N 38°21' W 011°20'2913.9
2017-May-26 02:23N 37°54' W 011°32'48013.9
2017-May-24 15:44N 30°13' W 014°13'513.8
2017-May-24 15:23N 30°08' W 014°14'4313.9
2017-May-24 12:18N 29°27' W 014°28'514.6
2017-May-24 11:56N 29°22' W 014°30'817.3
2017-May-24 11:30N 29°14' W 014°32'2114.6
2017-May-24 10:03N 28°54' W 014°39'314.0
2017-May-24 09:51N 28°51' W 014°40'1513.7
2017-May-24 08:46N 28°37' W 014°44'413.8
2017-May-24 08:30N 28°34' W 014°46'713.8
2017-May-24 08:01N 28°27' W 014°48'713.4
2017-May-24 07:30N 28°20' W 014°50'713.8
2017-May-24 07:00N 28°14' W 014°52'713.9
2017-May-24 06:30N 28°07' W 014°55'713.7
2017-May-24 06:00N 28°01' W 014°57'713.8
2017-May-24 05:30N 27°54' W 014°58'713.5
2017-May-24 05:00N 27°48' W 015°02'713.2
2017-May-24 04:30N 27°43' W 015°06'713.3
2017-May-24 04:00N 27°37' W 015°10'813.3
2017-May-24 03:25N 27°30' W 015°14'  
2017-May-21 21:22N 15°46' W 018°10'2513.5
2017-May-21 19:32N 15°21' W 018°10'013.6
2017-May-21 19:30N 15°21' W 018°10'1413.9
2017-May-21 18:29N 15°06' W 018°10'6714.1
2017-May-21 13:45N 13°60' W 018°10'813.8
2017-May-21 13:10N 13°52' W 018°10'  
Track history (hours):
 
Tides and Currents Weather Stations Pressure Air Temp Water Temp Dewpoint Dewpoint Depression Visibility Wind Speed Wind Dir Waves Ship Positions

Orchid Ace

Last reported at 2017-May-26 10:34 UTC. Time now 2017-May-27 15:49 UTC.
Position N 39°41' W 010°40'.

Length 200 m; draft 8.3 m.

Type: Cargo ship. MMSI: 432651000.

Date/timePositionNaut miles runAvg speedWind from/ knotsBaromVisibWave heightAir tempDewpointWater temp
2017-May-26 10:34N 39°41' W 010°40'213.9
2017-May-26 10:26N 39°39' W 010°41'2213.9
2017-May-26 08:50N 39°18' W 010°51'514.0
2017-May-26 08:30N 39°14' W 010°53'714.0
2017-May-26 08:00N 39°07' W 010°57'814.0
2017-May-26 07:27N 39°00' W 011°00'613.9
2017-May-26 07:01N 38°54' W 011°03'714.0
2017-May-26 06:31N 38°48' W 011°06'714.3
2017-May-26 06:00N 38°41' W 011°10'814.2
2017-May-26 05:25N 38°33' W 011°14'1214.0
2017-May-26 04:35N 38°23' W 011°19'214.1
2017-May-26 04:27N 38°21' W 011°20'2913.9
2017-May-26 02:23N 37°54' W 011°32'48013.9
2017-May-24 15:44N 30°13' W 014°13'513.8
2017-May-24 15:23N 30°08' W 014°14'4313.9
2017-May-24 12:18N 29°27' W 014°28'514.6
2017-May-24 11:56N 29°22' W 014°30'817.3
2017-May-24 11:30N 29°14' W 014°32'2114.6
2017-May-24 10:03N 28°54' W 014°39'314.0
2017-May-24 09:51N 28°51' W 014°40'1513.7
2017-May-24 08:46N 28°37' W 014°44'413.8
2017-May-24 08:30N 28°34' W 014°46'713.8
2017-May-24 08:01N 28°27' W 014°48'713.4
2017-May-24 07:30N 28°20' W 014°50'713.8
2017-May-24 07:00N 28°14' W 014°52'713.9
2017-May-24 06:30N 28°07' W 014°55'713.7
2017-May-24 06:00N 28°01' W 014°57'713.8
2017-May-24 05:30N 27°54' W 014°58'713.5
2017-May-24 05:00N 27°48' W 015°02'713.2
2017-May-24 04:30N 27°43' W 015°06'713.3
2017-May-24 04:00N 27°37' W 015°10'813.3
2017-May-24 03:25N 27°30' W 015°14'  
2017-May-21 21:22N 15°46' W 018°10'2513.5
2017-May-21 19:32N 15°21' W 018°10'013.6
2017-May-21 19:30N 15°21' W 018°10'1413.9
2017-May-21 18:29N 15°06' W 018°10'6714.1
2017-May-21 13:45N 13°60' W 018°10'813.8
2017-May-21 13:10N 13°52' W 018°10'  

Dump ship's entire track history